Main page
METAR-TAF:

METAR-TAF

Airports :

Oujda, Morocco

Angads Airport

latitude: 34-47N, longitude: 001-56W, elevation: 468 m

Current weather observation

The report was made 24 minutes ago, at 04:17 UTC
Wind 2 kt from variable directions
Temperature 11°C
Humidity 100%
Pressure 1017 hPa
Visibility: 1000 m
Scattered clouds at a height of 1300 ft
Scattered clouds at a height of 23000 ft
mist

METAR: GMFO 270417Z VRB02KT 1000 BR SCT013 SCT230 11/11 Q1017 NOSIG M2

Time: 05:41 (04:41 UTC)

Forecast

The report was made 5 hours and 41 minutes ago, at 23:00 UTC
Forecast valid from 27 at 00 UTC to 28 at 06 UTC
Wind 6 kt from the Northwest
Visibility: 3000 m
Overcast at a height of 200 ft
mist, light drizzle
Temporary
from 27 at 10 UTC to 27 at 18 UTC
Visibility: 8000 m
Scattered clouds at a height of 1000 ft
Broken clouds at a height of 2000 ft

TAF: GMFO 262300Z 2700/2806 32006KT 3000 BR -DZ OVC002 TEMPO 2710/2718 8000 SCT010 BKN020

Weather observations and forecasts of more than 4000 airports (METAR and TAF reports).

The available stations are represented by yellow and red dots on the map.

Hover mouse over dot to see the name of the station.

Then click to see weather observations and forecasts.

To change the map : click on the green buttons with a black cross to zoom in, on the green button with a dash to zoom out, or on the green arrows for adjacent maps.


METAR-TAF: